createdAt,value
2022-07-29T00:01:49.279Z,2.90
2022-07-29T00:04:16.180Z,2.60
2022-07-29T00:06:42.902Z,2.40
2022-07-29T00:09:09.347Z,2.60
2022-07-29T00:11:35.696Z,2.50
2022-07-29T00:14:02.194Z,2.93
2022-07-29T00:16:28.645Z,2.93
2022-07-29T00:18:55.193Z,2.30
2022-07-29T00:21:21.736Z,2.17
2022-07-29T00:23:48.077Z,2.23
2022-07-29T00:26:14.423Z,2.10
2022-07-29T00:28:40.759Z,2.53
2022-07-29T00:31:07.284Z,2.30
2022-07-29T00:33:33.644Z,2.67
2022-07-29T00:36:00.002Z,2.33
2022-07-29T00:38:26.392Z,2.20
2022-07-29T00:40:52.749Z,2.70
2022-07-29T00:43:19.157Z,2.20
2022-07-29T00:45:45.788Z,2.40
2022-07-29T00:48:12.248Z,2.70
2022-07-29T00:50:39.086Z,2.40
2022-07-29T00:53:07.709Z,2.20
2022-07-29T00:55:34.458Z,2.80
2022-07-29T00:58:01.282Z,2.10
2022-07-29T01:00:29.593Z,2.70
2022-07-29T01:02:56.133Z,2.43
2022-07-29T01:05:24.947Z,2.00
2022-07-29T01:08:13.874Z,2.33
2022-07-29T01:10:42.003Z,2.00
2022-07-29T01:13:09.821Z,2.13
2022-07-29T01:15:49.227Z,2.50
2022-07-29T01:18:24.941Z,2.47
2022-07-29T01:21:28.658Z,2.07
2022-07-29T01:24:29.313Z,2.40
2022-07-29T01:27:16.346Z,2.67
2022-07-29T01:29:56.267Z,2.17
2022-07-29T01:32:29.563Z,2.20
2022-07-29T01:35:24.319Z,2.00
2022-07-29T01:38:10.354Z,2.13
2022-07-29T01:40:59.661Z,2.03
2022-07-29T01:43:35.119Z,2.10
2022-07-29T01:46:10.214Z,1.90
2022-07-29T01:48:54.216Z,1.93
2022-07-29T01:51:49.677Z,2.40
2022-07-29T01:54:29.848Z,2.17
2022-07-29T01:56:57.909Z,1.83
2022-07-29T01:59:26.208Z,2.07
2022-07-29T02:01:55.731Z,2.17
2022-07-29T02:04:29.095Z,1.93
2022-07-29T02:07:03.023Z,1.90
2022-07-29T02:09:32.272Z,1.97
2022-07-29T02:12:02.091Z,2.10
2022-07-29T02:14:31.302Z,2.20
2022-07-29T02:17:01.170Z,1.90
2022-07-29T02:19:30.156Z,2.13
2022-07-29T02:21:58.496Z,2.20
2022-07-29T02:24:26.331Z,2.07
2022-07-29T02:26:56.022Z,2.10
2022-07-29T02:29:24.469Z,2.20
2022-07-29T02:31:53.455Z,2.50
2022-07-29T02:34:21.653Z,2.60
2022-07-29T02:36:49.702Z,2.27
2022-07-29T02:39:17.047Z,1.90
2022-07-29T02:41:56.482Z,2.87
2022-07-29T02:44:25.646Z,2.03
2022-07-29T02:46:59.816Z,2.17
2022-07-29T02:49:37.541Z,2.67
2022-07-29T02:52:19.171Z,2.50
2022-07-29T02:54:52.477Z,2.17
2022-07-29T02:57:31.041Z,2.57
2022-07-29T03:00:00.410Z,2.70
2022-07-29T03:02:28.862Z,2.40
2022-07-29T03:04:58.862Z,2.03
2022-07-29T03:07:28.197Z,2.10
2022-07-29T03:09:55.366Z,2.43
2022-07-29T03:12:22.464Z,2.60
2022-07-29T03:14:49.606Z,2.70
2022-07-29T03:17:16.343Z,2.27
2022-07-29T03:19:43.666Z,2.47
2022-07-29T03:22:10.657Z,2.40
2022-07-29T03:24:37.770Z,2.43
2022-07-29T03:27:05.674Z,2.73
2022-07-29T03:29:33.935Z,2.63
2022-07-29T03:32:07.200Z,2.40
2022-07-29T03:34:33.894Z,2.63
2022-07-29T03:37:00.467Z,2.70
2022-07-29T03:39:30.334Z,2.63
2022-07-29T03:41:59.278Z,2.93
2022-07-29T03:44:28.190Z,2.77
2022-07-29T03:46:57.258Z,3.00
2022-07-29T03:49:24.902Z,2.90
2022-07-29T03:51:51.364Z,2.90
2022-07-29T03:54:17.863Z,2.93
2022-07-29T03:56:48.371Z,2.57
2022-07-29T03:59:16.522Z,2.57
2022-07-29T04:01:44.082Z,2.93
2022-07-29T04:04:11.186Z,2.77
2022-07-29T04:06:45.187Z,3.27
2022-07-29T04:09:12.725Z,2.90
2022-07-29T04:12:03.512Z,3.20
2022-07-29T04:14:27.041Z,3.23
2022-07-29T04:16:53.953Z,3.03
2022-07-29T04:19:20.326Z,2.60
2022-07-29T04:21:46.657Z,2.83
2022-07-29T04:24:13.363Z,3.03
2022-07-29T04:26:39.917Z,2.97
2022-07-29T04:29:06.249Z,3.00
2022-07-29T04:31:32.672Z,2.80
2022-07-29T04:33:59.072Z,3.10
2022-07-29T04:36:29.502Z,3.47
2022-07-29T04:38:56.301Z,3.90
2022-07-29T04:41:22.633Z,3.30
2022-07-29T04:43:50.176Z,3.50
2022-07-29T04:46:16.823Z,3.97
2022-07-29T04:48:43.261Z,3.83
2022-07-29T04:51:09.659Z,3.50
2022-07-29T04:53:36.030Z,3.47
2022-07-29T04:56:03.128Z,2.70
2022-07-29T04:58:29.472Z,3.20
2022-07-29T05:00:55.926Z,2.97
2022-07-29T05:03:22.393Z,2.90
2022-07-29T05:05:48.729Z,3.80
2022-07-29T05:08:15.139Z,3.10
2022-07-29T05:10:41.469Z,2.70
2022-07-29T05:13:08.749Z,4.40
2022-07-29T05:15:36.572Z,2.77
2022-07-29T05:18:03.445Z,2.80
2022-07-29T05:20:30.597Z,2.90
2022-07-29T05:22:58.514Z,2.80
2022-07-29T05:25:40.711Z,2.53
2022-07-29T05:28:11.339Z,2.87
2022-07-29T05:30:37.727Z,2.87
2022-07-29T05:33:04.145Z,3.47
2022-07-29T05:35:30.524Z,3.50
2022-07-29T05:37:56.909Z,3.13
2022-07-29T05:40:23.349Z,2.90
2022-07-29T05:42:49.722Z,3.27
2022-07-29T05:45:16.054Z,3.23
2022-07-29T05:47:42.375Z,3.27
2022-07-29T05:50:09.596Z,3.23
2022-07-29T05:52:35.927Z,3.63
2022-07-29T05:55:05.155Z,3.70
2022-07-29T05:57:31.896Z,4.10
2022-07-29T05:59:58.529Z,3.07
2022-07-29T06:02:25.137Z,3.30
2022-07-29T06:04:51.535Z,3.13
2022-07-29T06:07:17.946Z,3.97
2022-07-29T06:09:44.488Z,3.70
2022-07-29T06:12:10.861Z,2.73
2022-07-29T06:14:38.781Z,3.47
2022-07-29T06:17:06.459Z,3.40
2022-07-29T06:19:35.872Z,3.37
2022-07-29T06:22:02.435Z,3.77
2022-07-29T06:24:29.044Z,3.13
2022-07-29T06:26:55.858Z,3.37
2022-07-29T06:29:22.270Z,3.63
2022-07-29T06:31:48.729Z,3.07
2022-07-29T06:34:15.425Z,3.20
2022-07-29T06:36:41.979Z,2.80
2022-07-29T06:39:09.216Z,3.27
2022-07-29T06:41:35.640Z,3.77
2022-07-29T06:44:02.234Z,3.53
2022-07-29T06:46:28.694Z,2.93
2022-07-29T06:48:55.472Z,3.37
2022-07-29T06:51:23.206Z,3.83
2022-07-29T06:53:59.919Z,4.17
2022-07-29T06:56:39.084Z,3.13
2022-07-29T06:59:07.839Z,3.37
2022-07-29T07:01:34.258Z,3.70
2022-07-29T07:04:00.685Z,3.47
2022-07-29T07:06:27.078Z,4.00
2022-07-29T07:08:53.448Z,4.67
2022-07-29T07:11:19.959Z,3.73
2022-07-29T07:13:46.331Z,3.80
2022-07-29T07:16:12.719Z,3.60
2022-07-29T07:18:39.150Z,3.73
2022-07-29T07:21:06.560Z,3.40
2022-07-29T07:23:32.893Z,3.60
2022-07-29T07:25:59.227Z,3.53
2022-07-29T07:28:25.603Z,3.60
2022-07-29T07:30:53.066Z,3.50
2022-07-29T07:33:20.197Z,3.40
2022-07-29T07:35:46.719Z,3.37
2022-07-29T07:38:13.359Z,3.27
2022-07-29T07:40:40.059Z,3.70
2022-07-29T07:43:06.419Z,3.23
2022-07-29T07:45:37.950Z,3.70
2022-07-29T07:48:04.750Z,3.70
2022-07-29T07:50:31.095Z,4.00
2022-07-29T07:53:00.345Z,3.43
2022-07-29T07:55:27.052Z,3.50
2022-07-29T07:57:54.476Z,4.00
2022-07-29T08:00:23.145Z,3.37
2022-07-29T08:02:50.802Z,3.70
2022-07-29T08:05:18.073Z,3.70
2022-07-29T08:07:48.286Z,3.90
2022-07-29T08:10:36.358Z,4.00
2022-07-29T08:13:07.145Z,3.80
2022-07-29T08:15:33.610Z,4.30
2022-07-29T08:18:01.577Z,4.00
2022-07-29T08:20:30.714Z,3.80
2022-07-29T08:22:57.043Z,3.63
2022-07-29T08:25:23.833Z,3.70
2022-07-29T08:27:50.193Z,4.23
2022-07-29T08:30:16.634Z,3.87
2022-07-29T08:32:53.692Z,3.47
2022-07-29T08:35:22.195Z,3.93
2022-07-29T08:37:48.822Z,4.20
2022-07-29T08:40:15.354Z,4.30
2022-07-29T08:42:41.779Z,4.30
2022-07-29T08:45:08.934Z,4.00
2022-07-29T08:47:39.479Z,3.57
2022-07-29T08:50:07.505Z,3.83
2022-07-29T08:52:40.153Z,4.30
2022-07-29T08:55:08.542Z,4.20
2022-07-29T08:57:35.511Z,4.90
2022-07-29T09:00:11.457Z,3.70
2022-07-29T09:02:42.585Z,4.13
2022-07-29T09:05:09.415Z,4.10
2022-07-29T09:07:36.193Z,4.10
2022-07-29T09:10:02.675Z,5.47
2022-07-29T09:12:33.698Z,4.23
2022-07-29T09:15:02.572Z,4.40
2022-07-29T09:17:50.109Z,4.73
2022-07-29T09:20:19.291Z,4.73
2022-07-29T09:22:50.396Z,4.70
2022-07-29T09:25:37.046Z,5.30
2022-07-29T09:28:29.806Z,5.07
2022-07-29T09:30:59.267Z,4.80
2022-07-29T09:33:35.324Z,5.30
2022-07-29T09:36:06.118Z,5.50
2022-07-29T09:38:34.251Z,4.80
2022-07-29T09:41:05.690Z,5.57
2022-07-29T09:43:33.226Z,4.50
2022-07-29T09:46:15.695Z,5.40
2022-07-29T09:48:42.339Z,5.30
2022-07-29T09:51:26.905Z,4.63
2022-07-29T09:54:24.221Z,5.27
2022-07-29T09:56:51.024Z,6.07
2022-07-29T09:59:17.895Z,4.70
2022-07-29T10:01:44.409Z,5.60
2022-07-29T10:04:10.855Z,4.80
2022-07-29T10:07:03.584Z,4.73
2022-07-29T10:09:31.727Z,5.63
2022-07-29T10:12:08.929Z,5.47
2022-07-29T10:14:36.493Z,4.63
2022-07-29T10:17:05.548Z,5.37
2022-07-29T10:19:33.295Z,4.00
2022-07-29T10:22:00.759Z,4.33
2022-07-29T10:24:29.359Z,3.73
2022-07-29T10:27:02.613Z,4.30
2022-07-29T10:29:29.871Z,4.13
2022-07-29T10:31:56.616Z,4.40
2022-07-29T10:34:45.651Z,4.70
2022-07-29T10:37:27.142Z,4.77
2022-07-29T10:40:29.136Z,5.00
2022-07-29T10:42:59.265Z,5.00
2022-07-29T10:45:27.844Z,4.90
2022-07-29T10:48:07.947Z,4.40
2022-07-29T10:50:58.138Z,4.70
2022-07-29T10:53:25.051Z,4.33
2022-07-29T10:55:52.860Z,4.00
2022-07-29T10:58:27.134Z,4.00
2022-07-29T11:00:54.931Z,4.13
2022-07-29T11:03:41.641Z,4.17
2022-07-29T11:06:16.661Z,4.13
2022-07-29T11:08:44.546Z,4.60
2022-07-29T11:11:32.843Z,4.13
2022-07-29T11:14:01.368Z,3.73
2022-07-29T11:17:05.992Z,3.70
2022-07-29T11:19:33.623Z,4.27
2022-07-29T11:22:02.231Z,3.87
2022-07-29T11:24:31.925Z,4.47
2022-07-29T11:27:23.575Z,4.00
2022-07-29T11:29:58.506Z,3.73
2022-07-29T11:32:29.448Z,3.43
2022-07-29T11:35:37.315Z,3.60
2022-07-29T11:38:29.343Z,3.87
2022-07-29T11:41:27.583Z,4.00
2022-07-29T11:43:59.539Z,4.17
2022-07-29T11:46:51.134Z,4.00
2022-07-29T11:49:32.224Z,4.57
2022-07-29T11:54:57.106Z,3.53
2022-07-29T11:57:29.482Z,4.90
2022-07-29T12:00:09.822Z,4.30
2022-07-29T12:02:43.962Z,4.60
2022-07-29T12:05:23.984Z,4.03
2022-07-29T12:08:12.566Z,3.67
2022-07-29T12:10:41.715Z,4.23
2022-07-29T12:13:09.748Z,3.80
2022-07-29T12:15:45.632Z,4.77
2022-07-29T12:18:15.156Z,4.60
2022-07-29T12:20:41.601Z,3.80
2022-07-29T12:23:14.444Z,4.17
2022-07-29T12:25:44.185Z,3.90
2022-07-29T12:28:14.186Z,4.60
2022-07-29T12:30:51.827Z,4.47
2022-07-29T12:33:23.946Z,3.53
2022-07-29T12:36:06.157Z,4.20
2022-07-29T12:38:35.689Z,3.90
2022-07-29T12:41:02.708Z,4.20
2022-07-29T12:43:31.399Z,4.00
2022-07-29T12:45:58.919Z,5.60
2022-07-29T12:48:39.858Z,4.23
2022-07-29T12:51:08.378Z,4.50
2022-07-29T12:53:36.080Z,3.90
2022-07-29T12:56:20.670Z,4.27
2022-07-29T12:58:52.591Z,4.30
2022-07-29T13:01:20.802Z,4.30
2022-07-29T13:03:57.045Z,4.17
2022-07-29T13:06:45.970Z,3.97
2022-07-29T13:09:20.547Z,3.60
2022-07-29T13:11:50.259Z,4.20
2022-07-29T13:14:35.143Z,3.07
2022-07-29T13:17:11.487Z,3.20
2022-07-29T13:19:43.907Z,3.30
2022-07-29T13:22:11.615Z,2.90
2022-07-29T13:24:58.223Z,3.17
2022-07-29T13:27:26.968Z,3.30
2022-07-29T13:29:57.306Z,3.17
2022-07-29T13:32:28.480Z,3.73
2022-07-29T13:35:01.201Z,3.67
2022-07-29T13:37:34.837Z,3.57
2022-07-29T13:40:03.989Z,3.90
2022-07-29T13:42:30.553Z,4.43
2022-07-29T13:44:56.937Z,4.57
2022-07-29T13:47:32.076Z,3.60
2022-07-29T13:50:00.248Z,3.63
2022-07-29T13:52:26.599Z,4.03
2022-07-29T13:54:52.942Z,3.60
2022-07-29T13:57:20.088Z,4.00
2022-07-29T13:59:49.466Z,4.63
2022-07-29T14:02:19.805Z,4.80
2022-07-29T14:04:46.265Z,5.23
2022-07-29T14:07:16.401Z,5.93
2022-07-29T14:09:43.244Z,5.47
2022-07-29T14:12:09.873Z,5.43
2022-07-29T14:14:37.358Z,5.73
2022-07-29T14:17:04.240Z,5.47
2022-07-29T14:19:32.793Z,5.93
2022-07-29T14:21:59.701Z,5.57
2022-07-29T14:24:26.403Z,5.67
2022-07-29T14:26:52.812Z,5.90
2022-07-29T14:29:19.205Z,5.97
2022-07-29T14:31:45.611Z,5.00
2022-07-29T14:34:11.989Z,6.80
2022-07-29T14:36:38.333Z,6.60
2022-07-29T14:39:05.008Z,6.50
2022-07-29T14:41:31.523Z,6.50
2022-07-29T14:43:58.655Z,6.80
2022-07-29T14:46:25.010Z,7.00
2022-07-29T14:48:51.447Z,6.17
2022-07-29T14:51:18.273Z,6.10
2022-07-29T14:53:44.620Z,5.27
2022-07-29T14:56:35.325Z,5.57
2022-07-29T14:58:58.228Z,5.73
2022-07-29T15:01:25.589Z,6.03
2022-07-29T15:03:55.767Z,5.90
2022-07-29T15:06:26.125Z,5.80
2022-07-29T15:08:52.514Z,6.60
2022-07-29T15:11:18.838Z,6.80
2022-07-29T15:13:45.171Z,7.40
2022-07-29T15:16:11.564Z,7.03
2022-07-29T15:18:39.157Z,8.20
2022-07-29T15:21:07.747Z,8.30
2022-07-29T15:23:36.970Z,8.17
2022-07-29T15:26:04.845Z,7.07
2022-07-29T15:28:31.215Z,7.90
2022-07-29T15:30:57.561Z,7.13
2022-07-29T15:33:24.073Z,7.73
2022-07-29T15:35:50.437Z,7.73
2022-07-29T15:38:17.446Z,7.27
2022-07-29T15:40:44.496Z,6.73
2022-07-29T15:43:10.890Z,7.77
2022-07-29T15:45:40.553Z,7.93
2022-07-29T15:48:08.902Z,8.23
2022-07-29T15:50:35.569Z,10.13
2022-07-29T15:53:02.498Z,8.17
2022-07-29T15:55:28.866Z,8.40
2022-07-29T15:58:00.302Z,8.40
2022-07-29T16:00:27.198Z,8.33
2022-07-29T16:02:53.589Z,8.50
2022-07-29T16:05:19.991Z,7.93
2022-07-29T16:07:46.474Z,8.60
2022-07-29T16:10:12.807Z,9.03
2022-07-29T16:12:39.172Z,9.33
2022-07-29T16:15:09.715Z,9.20
2022-07-29T16:17:36.868Z,8.40
2022-07-29T16:20:04.109Z,8.90
2022-07-29T16:22:30.544Z,8.40
2022-07-29T16:24:57.126Z,7.70
2022-07-29T16:27:26.938Z,9.10
2022-07-29T16:30:02.136Z,9.17
2022-07-29T16:32:28.551Z,9.10
2022-07-29T16:34:54.913Z,9.90
2022-07-29T16:37:21.314Z,9.60
2022-07-29T16:39:47.690Z,9.40
2022-07-29T16:42:31.046Z,9.00
2022-07-29T16:45:00.448Z,9.47
2022-07-29T16:47:29.211Z,9.63
2022-07-29T16:49:56.204Z,8.67
2022-07-29T16:52:22.526Z,8.17
2022-07-29T16:54:48.885Z,7.60
2022-07-29T16:57:15.244Z,8.13
2022-07-29T16:59:43.430Z,7.90
2022-07-29T17:02:11.721Z,8.40
2022-07-29T17:04:38.210Z,7.40
2022-07-29T17:07:04.727Z,7.70
2022-07-29T17:09:31.070Z,7.90
2022-07-29T17:11:57.651Z,7.03
2022-07-29T17:14:29.617Z,6.77
2022-07-29T17:17:02.368Z,5.20
2022-07-29T17:19:31.840Z,6.00
2022-07-29T17:22:06.776Z,6.70
2022-07-29T17:24:35.992Z,5.67
2022-07-29T17:27:02.340Z,5.70
2022-07-29T17:29:28.732Z,5.40
2022-07-29T17:31:55.170Z,7.23
2022-07-29T17:34:21.504Z,4.27
2022-07-29T17:36:48.192Z,7.30
2022-07-29T17:39:14.559Z,6.00
2022-07-29T17:41:40.970Z,5.10
2022-07-29T17:44:09.317Z,4.90
2022-07-29T17:46:35.720Z,4.67
2022-07-29T17:49:02.215Z,4.30
2022-07-29T17:51:29.441Z,5.10
2022-07-29T17:53:55.957Z,5.23
2022-07-29T17:56:22.532Z,4.20
2022-07-29T17:58:48.922Z,4.90
2022-07-29T18:01:15.530Z,4.00
2022-07-29T18:03:43.283Z,4.30
2022-07-29T18:06:12.823Z,4.00
2022-07-29T18:08:39.868Z,4.57
2022-07-29T18:11:06.432Z,4.40
2022-07-29T18:13:32.828Z,3.87
2022-07-29T18:16:00.627Z,4.23
2022-07-29T18:18:27.344Z,4.50
2022-07-29T18:20:53.883Z,4.43
2022-07-29T18:23:20.268Z,4.27
2022-07-29T18:25:46.654Z,4.00
2022-07-29T18:28:13.004Z,3.73
2022-07-29T18:30:39.412Z,3.90
2022-07-29T18:33:20.754Z,3.90
2022-07-29T18:35:50.013Z,3.90
2022-07-29T18:38:17.084Z,3.87
2022-07-29T18:40:45.326Z,3.77
2022-07-29T18:43:12.373Z,3.60
2022-07-29T18:45:39.466Z,3.57
2022-07-29T18:48:08.278Z,3.80
2022-07-29T18:50:39.438Z,4.20
2022-07-29T18:53:06.030Z,3.97
2022-07-29T18:55:32.412Z,3.57
2022-07-29T18:57:58.777Z,3.33
2022-07-29T19:00:26.414Z,3.97
2022-07-29T19:02:53.678Z,3.33
2022-07-29T19:05:20.942Z,3.97
2022-07-29T19:07:47.286Z,3.97
2022-07-29T19:10:13.907Z,3.50
2022-07-29T19:12:40.437Z,3.90
2022-07-29T19:15:08.388Z,3.80
2022-07-29T19:17:34.742Z,3.23
2022-07-29T19:20:01.353Z,4.10
2022-07-29T19:22:27.729Z,3.40
2022-07-29T19:24:54.079Z,3.40
2022-07-29T19:27:20.449Z,4.03
2022-07-29T19:29:46.854Z,3.20
2022-07-29T19:32:14.391Z,3.40
2022-07-29T19:35:10.108Z,3.60
2022-07-29T19:37:37.202Z,3.50
2022-07-29T19:40:04.256Z,4.00
2022-07-29T19:42:30.656Z,3.30
2022-07-29T19:44:56.997Z,4.07
2022-07-29T19:47:23.386Z,4.07
2022-07-29T19:49:49.786Z,3.07
2022-07-29T19:52:16.176Z,3.70
2022-07-29T19:54:42.506Z,3.03
2022-07-29T19:57:09.878Z,3.40
2022-07-29T19:59:36.210Z,3.60
2022-07-29T20:02:02.725Z,3.13
2022-07-29T20:04:29.208Z,3.70
2022-07-29T20:07:01.359Z,4.10
2022-07-29T20:09:28.563Z,3.77
2022-07-29T20:11:55.019Z,3.67
2022-07-29T20:14:21.884Z,3.40
2022-07-29T20:16:48.739Z,4.37
2022-07-29T20:19:15.132Z,4.50
2022-07-29T20:21:41.520Z,4.73
2022-07-29T20:24:08.633Z,4.10
2022-07-29T20:26:35.149Z,3.67
2022-07-29T20:29:04.983Z,4.07
2022-07-29T20:31:32.303Z,4.23
2022-07-29T20:33:59.083Z,4.23
2022-07-29T20:36:25.472Z,4.30
2022-07-29T20:38:51.864Z,3.80
2022-07-29T20:41:18.191Z,4.33
2022-07-29T20:43:45.402Z,4.67
2022-07-29T20:46:12.227Z,4.57
2022-07-29T20:48:39.886Z,3.90
2022-07-29T20:51:06.412Z,4.07
2022-07-29T20:53:33.706Z,4.43
2022-07-29T20:56:00.098Z,4.50
2022-07-29T20:58:26.848Z,4.20
2022-07-29T21:00:53.191Z,4.53
2022-07-29T21:03:19.576Z,3.83
2022-07-29T21:05:45.924Z,4.57
2022-07-29T21:08:12.268Z,4.63
2022-07-29T21:10:38.678Z,4.33
2022-07-29T21:13:05.046Z,5.07
2022-07-29T21:15:32.444Z,4.90
2022-07-29T21:18:07.292Z,4.90
2022-07-29T21:20:33.718Z,4.87
2022-07-29T21:23:00.314Z,4.40
2022-07-29T21:25:26.987Z,4.83
2022-07-29T21:28:12.041Z,4.83
2022-07-29T21:30:38.581Z,5.07
2022-07-29T21:33:04.990Z,4.00
2022-07-29T21:35:58.898Z,4.43
2022-07-29T21:38:18.358Z,5.40
2022-07-29T21:40:50.272Z,4.40
2022-07-29T21:43:17.933Z,4.80
2022-07-29T21:45:47.574Z,4.70
2022-07-29T21:48:14.061Z,4.30
2022-07-29T21:50:40.399Z,5.10
2022-07-29T21:53:06.894Z,4.97
2022-07-29T21:55:33.493Z,4.60
2022-07-29T21:57:59.979Z,4.47
2022-07-29T22:00:26.566Z,4.70
2022-07-29T22:02:53.163Z,5.33
2022-07-29T22:05:19.693Z,4.50
2022-07-29T22:07:54.410Z,4.80
2022-07-29T22:10:24.826Z,4.73
2022-07-29T22:12:52.132Z,4.47
2022-07-29T22:15:18.574Z,5.00
2022-07-29T22:17:45.117Z,4.80
2022-07-29T22:20:11.780Z,4.80
2022-07-29T22:22:38.691Z,4.80
2022-07-29T22:25:05.661Z,4.50
2022-07-29T22:27:32.065Z,4.17
2022-07-29T22:29:58.396Z,4.60
2022-07-29T22:32:25.030Z,4.73
2022-07-29T22:34:51.467Z,4.30
2022-07-29T22:37:17.851Z,4.90
2022-07-29T22:39:44.466Z,5.33
2022-07-29T22:42:10.999Z,5.47
2022-07-29T22:44:37.342Z,4.40
2022-07-29T22:47:04.654Z,4.90
2022-07-29T22:49:31.106Z,5.00
2022-07-29T22:51:57.452Z,4.73
2022-07-29T22:54:23.818Z,5.43
2022-07-29T22:56:50.149Z,4.60
2022-07-29T22:59:16.486Z,4.90
2022-07-29T23:01:42.867Z,4.47
2022-07-29T23:04:09.334Z,4.90
2022-07-29T23:06:36.006Z,4.67
2022-07-29T23:09:02.581Z,5.50
2022-07-29T23:11:28.989Z,4.20
2022-07-29T23:13:55.349Z,5.30
2022-07-29T23:16:26.668Z,5.20
2022-07-29T23:18:53.825Z,5.50
2022-07-29T23:21:20.830Z,4.90
2022-07-29T23:23:48.376Z,4.60
2022-07-29T23:26:16.691Z,4.10
2022-07-29T23:28:44.341Z,4.20
2022-07-29T23:31:11.246Z,4.57
2022-07-29T23:33:37.642Z,4.67
2022-07-29T23:36:04.022Z,4.60
2022-07-29T23:38:30.473Z,5.40
2022-07-29T23:40:58.448Z,4.80
2022-07-29T23:43:25.029Z,4.33
2022-07-29T23:45:51.429Z,4.37
2022-07-29T23:48:20.882Z,4.67
2022-07-29T23:50:47.290Z,4.17
2022-07-29T23:53:13.696Z,3.70
2022-07-29T23:55:40.092Z,4.13
2022-07-29T23:58:06.445Z,4.50
